sensor_id;sensor_type;location;lat;lon;timestamp;pressure;altitude;pressure_sealevel;temperature;humidity
68822;BME280;55834;50.870;4.606;2023-07-31T00:01:23;100582.63;;;16.12;61.67
68822;BME280;55834;50.870;4.606;2023-07-31T00:03:49;100584.06;;;16.19;61.45
68822;BME280;55834;50.870;4.606;2023-07-31T00:06:14;100581.13;;;16.23;61.49
68822;BME280;55834;50.870;4.606;2023-07-31T00:08:40;100579.53;;;16.21;61.58
68822;BME280;55834;50.870;4.606;2023-07-31T00:11:05;100575.00;;;15.88;61.39
68822;BME280;55834;50.870;4.606;2023-07-31T00:13:30;100581.84;;;15.76;62.34
68822;BME280;55834;50.870;4.606;2023-07-31T00:15:56;100578.97;;;15.81;63.53
68822;BME280;55834;50.870;4.606;2023-07-31T00:18:21;100576.88;;;15.53;62.92
68822;BME280;55834;50.870;4.606;2023-07-31T00:20:47;100572.53;;;15.85;62.90
68822;BME280;55834;50.870;4.606;2023-07-31T00:23:12;100565.72;;;16.13;61.82
68822;BME280;55834;50.870;4.606;2023-07-31T00:25:37;100558.41;;;16.00;61.98
68822;BME280;55834;50.870;4.606;2023-07-31T00:28:03;100553.97;;;16.17;62.23
68822;BME280;55834;50.870;4.606;2023-07-31T00:30:28;100557.34;;;16.03;61.47
68822;BME280;55834;50.870;4.606;2023-07-31T00:32:54;100546.88;;;16.33;61.55
68822;BME280;55834;50.870;4.606;2023-07-31T00:35:19;100549.41;;;15.86;61.74
68822;BME280;55834;50.870;4.606;2023-07-31T00:37:45;100548.63;;;16.01;62.57
68822;BME280;55834;50.870;4.606;2023-07-31T00:40:10;100546.63;;;16.05;61.95
68822;BME280;55834;50.870;4.606;2023-07-31T00:42:35;100545.09;;;16.00;62.47
68822;BME280;55834;50.870;4.606;2023-07-31T00:45:01;100543.09;;;16.21;61.51
68822;BME280;55834;50.870;4.606;2023-07-31T00:47:26;100543.00;;;16.06;61.91
68822;BME280;55834;50.870;4.606;2023-07-31T00:49:52;100538.91;;;16.16;62.42
68822;BME280;55834;50.870;4.606;2023-07-31T00:52:18;100541.44;;;15.86;62.62
68822;BME280;55834;50.870;4.606;2023-07-31T00:54:44;100523.38;;;15.75;63.19
68822;BME280;55834;50.870;4.606;2023-07-31T00:57:10;100526.13;;;16.07;62.43
68822;BME280;55834;50.870;4.606;2023-07-31T00:59:35;100523.78;;;16.00;62.67
68822;BME280;55834;50.870;4.606;2023-07-31T01:02:01;100517.84;;;15.95;63.06
68822;BME280;55834;50.870;4.606;2023-07-31T01:04:27;100515.34;;;15.59;63.21
68822;BME280;55834;50.870;4.606;2023-07-31T01:07:14;100528.22;;;15.33;64.29
68822;BME280;55834;50.870;4.606;2023-07-31T01:12:38;100515.69;;;16.02;62.31
68822;BME280;55834;50.870;4.606;2023-07-31T01:15:08;100513.25;;;15.82;63.39
68822;BME280;55834;50.870;4.606;2023-07-31T01:17:38;100519.09;;;15.88;62.26
68822;BME280;55834;50.870;4.606;2023-07-31T01:20:10;100511.44;;;16.15;61.64
68822;BME280;55834;50.870;4.606;2023-07-31T01:22:54;100510.16;;;15.73;62.38
68822;BME280;55834;50.870;4.606;2023-07-31T01:28:25;100513.81;;;15.55;63.24
68822;BME280;55834;50.870;4.606;2023-07-31T01:30:55;100513.22;;;14.79;66.02
68822;BME280;55834;50.870;4.606;2023-07-31T01:33:23;100517.00;;;15.27;64.57
68822;BME280;55834;50.870;4.606;2023-07-31T01:35:49;100518.00;;;15.07;64.79
68822;BME280;55834;50.870;4.606;2023-07-31T01:38:15;100520.22;;;15.51;64.39
68822;BME280;55834;50.870;4.606;2023-07-31T01:40:41;100522.47;;;14.89;65.01
68822;BME280;55834;50.870;4.606;2023-07-31T01:43:06;100517.94;;;14.91;65.04
68822;BME280;55834;50.870;4.606;2023-07-31T01:45:32;100514.72;;;15.54;64.25
68822;BME280;55834;50.870;4.606;2023-07-31T01:47:57;100517.22;;;14.87;65.52
68822;BME280;55834;50.870;4.606;2023-07-31T01:50:22;100507.38;;;15.07;65.81
68822;BME280;55834;50.870;4.606;2023-07-31T01:52:48;100514.97;;;15.32;64.76
68822;BME280;55834;50.870;4.606;2023-07-31T01:55:16;100497.66;;;15.58;63.56
68822;BME280;55834;50.870;4.606;2023-07-31T01:57:41;100502.34;;;15.70;63.68
68822;BME280;55834;50.870;4.606;2023-07-31T02:00:07;100490.53;;;15.92;63.13
68822;BME280;55834;50.870;4.606;2023-07-31T02:02:33;100486.75;;;16.12;62.07
68822;BME280;55834;50.870;4.606;2023-07-31T02:04:58;100481.53;;;16.10;62.12
68822;BME280;55834;50.870;4.606;2023-07-31T02:07:23;100471.72;;;16.11;62.20
68822;BME280;55834;50.870;4.606;2023-07-31T02:09:49;100474.06;;;15.52;63.78
68822;BME280;55834;50.870;4.606;2023-07-31T02:12:14;100466.81;;;16.03;63.15
68822;BME280;55834;50.870;4.606;2023-07-31T02:14:40;100470.38;;;16.04;62.26
68822;BME280;55834;50.870;4.606;2023-07-31T02:17:06;100458.16;;;15.99;62.13
68822;BME280;55834;50.870;4.606;2023-07-31T02:19:31;100456.09;;;16.05;62.50
68822;BME280;55834;50.870;4.606;2023-07-31T02:21:56;100457.22;;;16.00;63.36
68822;BME280;55834;50.870;4.606;2023-07-31T02:24:22;100450.28;;;16.30;63.17
68822;BME280;55834;50.870;4.606;2023-07-31T02:26:47;100452.78;;;16.17;61.68
68822;BME280;55834;50.870;4.606;2023-07-31T02:29:12;100455.00;;;16.24;62.51
68822;BME280;55834;50.870;4.606;2023-07-31T02:31:38;100441.94;;;16.20;62.35
68822;BME280;55834;50.870;4.606;2023-07-31T02:34:03;100442.69;;;16.38;62.57
68822;BME280;55834;50.870;4.606;2023-07-31T02:36:28;100436.91;;;16.61;61.47
68822;BME280;55834;50.870;4.606;2023-07-31T02:38:53;100439.44;;;16.79;60.57
68822;BME280;55834;50.870;4.606;2023-07-31T02:41:19;100425.59;;;16.10;62.01
68822;BME280;55834;50.870;4.606;2023-07-31T02:43:44;100431.25;;;15.72;63.14
68822;BME280;55834;50.870;4.606;2023-07-31T02:46:09;100426.50;;;15.46;64.74
68822;BME280;55834;50.870;4.606;2023-07-31T02:48:35;100417.28;;;15.85;63.96
68822;BME280;55834;50.870;4.606;2023-07-31T02:51:00;100420.19;;;15.96;63.91
68822;BME280;55834;50.870;4.606;2023-07-31T02:53:25;100410.50;;;15.95;63.70
68822;BME280;55834;50.870;4.606;2023-07-31T02:55:51;100413.91;;;15.97;63.30
68822;BME280;55834;50.870;4.606;2023-07-31T02:58:16;100405.00;;;16.30;62.36
68822;BME280;55834;50.870;4.606;2023-07-31T03:00:43;100411.34;;;15.79;62.86
68822;BME280;55834;50.870;4.606;2023-07-31T03:03:08;100411.41;;;15.62;64.18
68822;BME280;55834;50.870;4.606;2023-07-31T03:05:34;100407.75;;;15.81;64.58
68822;BME280;55834;50.870;4.606;2023-07-31T03:07:59;100403.88;;;15.70;63.86
68822;BME280;55834;50.870;4.606;2023-07-31T03:10:24;100406.28;;;15.91;63.11
68822;BME280;55834;50.870;4.606;2023-07-31T03:12:50;100414.63;;;16.00;62.72
68822;BME280;55834;50.870;4.606;2023-07-31T03:15:15;100408.31;;;15.86;63.25
68822;BME280;55834;50.870;4.606;2023-07-31T03:17:40;100406.25;;;15.59;64.46
68822;BME280;55834;50.870;4.606;2023-07-31T03:20:06;100396.38;;;15.61;63.93
68822;BME280;55834;50.870;4.606;2023-07-31T03:22:32;100400.97;;;16.07;63.66
68822;BME280;55834;50.870;4.606;2023-07-31T03:24:57;100405.75;;;16.32;62.38
68822;BME280;55834;50.870;4.606;2023-07-31T03:27:22;100393.56;;;15.96;62.98
68822;BME280;55834;50.870;4.606;2023-07-31T03:29:48;100389.94;;;15.65;63.86
68822;BME280;55834;50.870;4.606;2023-07-31T03:32:16;100391.50;;;15.03;65.77
68822;BME280;55834;50.870;4.606;2023-07-31T03:34:41;100389.47;;;15.08;65.85
68822;BME280;55834;50.870;4.606;2023-07-31T03:37:07;100389.78;;;15.52;65.25
68822;BME280;55834;50.870;4.606;2023-07-31T03:39:34;100390.56;;;15.04;66.77
68822;BME280;55834;50.870;4.606;2023-07-31T03:42:00;100382.28;;;15.43;66.27
68822;BME280;55834;50.870;4.606;2023-07-31T03:44:25;100380.44;;;15.61;65.18
68822;BME280;55834;50.870;4.606;2023-07-31T03:46:51;100375.88;;;15.63;66.01
68822;BME280;55834;50.870;4.606;2023-07-31T03:49:16;100367.53;;;15.53;65.03
68822;BME280;55834;50.870;4.606;2023-07-31T03:51:42;100366.59;;;15.70;64.14
68822;BME280;55834;50.870;4.606;2023-07-31T03:54:07;100361.47;;;15.51;65.61
68822;BME280;55834;50.870;4.606;2023-07-31T03:56:33;100359.47;;;15.87;64.93
68822;BME280;55834;50.870;4.606;2023-07-31T03:58:58;100359.91;;;15.95;64.53
68822;BME280;55834;50.870;4.606;2023-07-31T04:01:24;100359.47;;;15.71;64.61
68822;BME280;55834;50.870;4.606;2023-07-31T04:03:49;100364.38;;;15.78;65.17
68822;BME280;55834;50.870;4.606;2023-07-31T04:06:15;100362.03;;;15.88;64.29
68822;BME280;55834;50.870;4.606;2023-07-31T04:08:43;100352.78;;;15.95;64.24
68822;BME280;55834;50.870;4.606;2023-07-31T04:11:09;100343.59;;;15.38;65.61
68822;BME280;55834;50.870;4.606;2023-07-31T04:13:34;100341.28;;;15.14;66.15
68822;BME280;55834;50.870;4.606;2023-07-31T04:16:00;100335.69;;;15.36;66.60
68822;BME280;55834;50.870;4.606;2023-07-31T04:18:25;100335.53;;;15.22;66.40
68822;BME280;55834;50.870;4.606;2023-07-31T04:20:51;100333.81;;;15.70;65.77
68822;BME280;55834;50.870;4.606;2023-07-31T04:23:16;100326.94;;;15.66;65.48
68822;BME280;55834;50.870;4.606;2023-07-31T04:25:42;100329.34;;;15.86;64.92
68822;BME280;55834;50.870;4.606;2023-07-31T04:28:07;100329.41;;;16.00;64.65
68822;BME280;55834;50.870;4.606;2023-07-31T04:30:33;100326.16;;;15.79;64.17
68822;BME280;55834;50.870;4.606;2023-07-31T04:32:59;100322.81;;;15.92;64.25
68822;BME280;55834;50.870;4.606;2023-07-31T04:35:25;100327.34;;;15.74;64.53
68822;BME280;55834;50.870;4.606;2023-07-31T04:37:50;100324.00;;;16.02;64.27
68822;BME280;55834;50.870;4.606;2023-07-31T04:40:16;100329.69;;;15.64;64.35
68822;BME280;55834;50.870;4.606;2023-07-31T04:42:41;100326.66;;;16.02;64.41
68822;BME280;55834;50.870;4.606;2023-07-31T04:45:08;100325.19;;;16.12;63.47
68822;BME280;55834;50.870;4.606;2023-07-31T04:47:34;100319.19;;;15.93;63.14
68822;BME280;55834;50.870;4.606;2023-07-31T04:49:59;100319.56;;;15.87;63.67
68822;BME280;55834;50.870;4.606;2023-07-31T04:52:25;100311.94;;;16.11;63.76
68822;BME280;55834;50.870;4.606;2023-07-31T04:54:50;100312.81;;;16.11;62.87
68822;BME280;55834;50.870;4.606;2023-07-31T04:57:15;100317.53;;;15.60;63.60
68822;BME280;55834;50.870;4.606;2023-07-31T04:59:41;100315.78;;;15.43;65.89
68822;BME280;55834;50.870;4.606;2023-07-31T05:02:08;100313.34;;;15.23;65.32
68822;BME280;55834;50.870;4.606;2023-07-31T05:04:34;100312.72;;;15.18;66.12
68822;BME280;55834;50.870;4.606;2023-07-31T05:06:59;100317.06;;;15.36;66.45
68822;BME280;55834;50.870;4.606;2023-07-31T05:09:24;100318.91;;;15.18;67.11
68822;BME280;55834;50.870;4.606;2023-07-31T05:11:50;100315.09;;;15.55;66.45
68822;BME280;55834;50.870;4.606;2023-07-31T05:14:15;100315.84;;;14.93;66.93
68822;BME280;55834;50.870;4.606;2023-07-31T05:16:41;100313.00;;;15.29;66.18
68822;BME280;55834;50.870;4.606;2023-07-31T05:19:06;100309.94;;;15.52;65.91
68822;BME280;55834;50.870;4.606;2023-07-31T05:21:32;100309.06;;;15.36;66.28
68822;BME280;55834;50.870;4.606;2023-07-31T05:23:57;100313.56;;;15.02;66.91
68822;BME280;55834;50.870;4.606;2023-07-31T05:26:22;100307.75;;;15.11;66.78
68822;BME280;55834;50.870;4.606;2023-07-31T05:28:48;100309.50;;;15.28;66.65
68822;BME280;55834;50.870;4.606;2023-07-31T05:31:17;100307.38;;;15.51;65.91
68822;BME280;55834;50.870;4.606;2023-07-31T05:33:42;100303.50;;;15.56;65.32
68822;BME280;55834;50.870;4.606;2023-07-31T05:36:08;100290.38;;;15.53;66.24
68822;BME280;55834;50.870;4.606;2023-07-31T05:38:34;100286.84;;;14.88;67.70
68822;BME280;55834;50.870;4.606;2023-07-31T05:41:00;100288.41;;;14.92;68.54
68822;BME280;55834;50.870;4.606;2023-07-31T05:43:25;100288.25;;;14.62;69.08
68822;BME280;55834;50.870;4.606;2023-07-31T05:45:51;100285.16;;;14.70;69.05
68822;BME280;55834;50.870;4.606;2023-07-31T05:48:16;100287.09;;;14.83;67.96
68822;BME280;55834;50.870;4.606;2023-07-31T05:50:43;100289.31;;;14.58;68.79
68822;BME280;55834;50.870;4.606;2023-07-31T05:53:08;100273.63;;;14.86;67.80
68822;BME280;55834;50.870;4.606;2023-07-31T05:55:35;100295.47;;;14.06;71.21
68822;BME280;55834;50.870;4.606;2023-07-31T05:58:01;100294.31;;;14.64;69.73
68822;BME280;55834;50.870;4.606;2023-07-31T06:00:26;100278.72;;;14.91;68.25
68822;BME280;55834;50.870;4.606;2023-07-31T06:02:52;100285.28;;;14.84;67.48
68822;BME280;55834;50.870;4.606;2023-07-31T06:05:18;100273.69;;;14.69;68.23
68822;BME280;55834;50.870;4.606;2023-07-31T06:07:43;100270.88;;;14.55;69.06
68822;BME280;55834;50.870;4.606;2023-07-31T06:10:09;100274.03;;;14.46;69.50
68822;BME280;55834;50.870;4.606;2023-07-31T06:12:35;100273.78;;;14.15;70.24
68822;BME280;55834;50.870;4.606;2023-07-31T06:15:02;100268.91;;;14.41;70.49
68822;BME280;55834;50.870;4.606;2023-07-31T06:17:28;100266.41;;;14.73;68.13
68822;BME280;55834;50.870;4.606;2023-07-31T06:19:54;100271.81;;;15.20;67.21
68822;BME280;55834;50.870;4.606;2023-07-31T06:22:19;100277.94;;;15.05;67.42
68822;BME280;55834;50.870;4.606;2023-07-31T06:24:45;100272.44;;;14.92;66.56
68822;BME280;55834;50.870;4.606;2023-07-31T06:27:11;100265.78;;;15.01;66.80
68822;BME280;55834;50.870;4.606;2023-07-31T06:29:36;100264.84;;;14.69;67.52
68822;BME280;55834;50.870;4.606;2023-07-31T06:32:02;100265.84;;;14.83;67.67
68822;BME280;55834;50.870;4.606;2023-07-31T06:34:27;100272.66;;;15.21;66.77
68822;BME280;55834;50.870;4.606;2023-07-31T06:36:53;100265.13;;;15.29;65.98
68822;BME280;55834;50.870;4.606;2023-07-31T06:39:18;100261.31;;;15.34;65.87
68822;BME280;55834;50.870;4.606;2023-07-31T06:41:44;100260.47;;;15.01;66.73
68822;BME280;55834;50.870;4.606;2023-07-31T06:44:10;100264.41;;;15.09;65.74
68822;BME280;55834;50.870;4.606;2023-07-31T06:46:35;100264.50;;;15.24;65.73
68822;BME280;55834;50.870;4.606;2023-07-31T06:49:00;100258.53;;;14.71;67.83
68822;BME280;55834;50.870;4.606;2023-07-31T06:51:26;100254.06;;;15.37;66.55
68822;BME280;55834;50.870;4.606;2023-07-31T06:53:52;100256.16;;;14.98;67.03
68822;BME280;55834;50.870;4.606;2023-07-31T06:56:18;100242.63;;;15.03;66.94
68822;BME280;55834;50.870;4.606;2023-07-31T06:58:43;100236.78;;;15.28;66.79
68822;BME280;55834;50.870;4.606;2023-07-31T07:01:08;100237.84;;;15.09;66.54
68822;BME280;55834;50.870;4.606;2023-07-31T07:03:34;100238.00;;;15.22;66.95
68822;BME280;55834;50.870;4.606;2023-07-31T07:05:59;100227.47;;;15.37;66.04
68822;BME280;55834;50.870;4.606;2023-07-31T07:08:25;100225.06;;;15.94;64.55
68822;BME280;55834;50.870;4.606;2023-07-31T07:10:50;100239.66;;;15.56;65.05
68822;BME280;55834;50.870;4.606;2023-07-31T07:13:16;100235.94;;;14.96;65.92
68822;BME280;55834;50.870;4.606;2023-07-31T07:15:47;100227.84;;;15.46;65.08
68822;BME280;55834;50.870;4.606;2023-07-31T07:18:12;100231.31;;;15.63;64.30
68822;BME280;55834;50.870;4.606;2023-07-31T07:20:38;100232.53;;;15.25;64.59
68822;BME280;55834;50.870;4.606;2023-07-31T07:23:03;100248.22;;;15.30;65.17
68822;BME280;55834;50.870;4.606;2023-07-31T07:25:28;100241.19;;;15.29;65.63
68822;BME280;55834;50.870;4.606;2023-07-31T07:27:54;100235.44;;;15.98;64.09
68822;BME280;55834;50.870;4.606;2023-07-31T07:30:20;100234.72;;;15.81;63.49
68822;BME280;55834;50.870;4.606;2023-07-31T07:32:45;100241.28;;;15.75;64.20
68822;BME280;55834;50.870;4.606;2023-07-31T07:35:11;100225.81;;;15.66;63.47
68822;BME280;55834;50.870;4.606;2023-07-31T07:37:37;100241.19;;;15.45;64.61
68822;BME280;55834;50.870;4.606;2023-07-31T07:40:02;100247.75;;;15.85;63.76
68822;BME280;55834;50.870;4.606;2023-07-31T07:42:29;100242.66;;;15.66;64.09
68822;BME280;55834;50.870;4.606;2023-07-31T07:44:54;100238.91;;;16.00;62.93
68822;BME280;55834;50.870;4.606;2023-07-31T07:47:19;100243.16;;;16.03;62.61
68822;BME280;55834;50.870;4.606;2023-07-31T07:49:47;100251.84;;;15.45;63.73
68822;BME280;55834;50.870;4.606;2023-07-31T07:52:13;100244.44;;;15.66;63.13
68822;BME280;55834;50.870;4.606;2023-07-31T07:54:39;100241.72;;;15.97;62.95
68822;BME280;55834;50.870;4.606;2023-07-31T07:57:05;100246.09;;;16.29;61.98
68822;BME280;55834;50.870;4.606;2023-07-31T07:59:30;100247.84;;;16.30;61.40
68822;BME280;55834;50.870;4.606;2023-07-31T08:01:55;100239.63;;;16.18;61.87
68822;BME280;55834;50.870;4.606;2023-07-31T08:04:22;100249.38;;;15.57;64.70
68822;BME280;55834;50.870;4.606;2023-07-31T08:06:47;100249.22;;;15.91;63.37
68822;BME280;55834;50.870;4.606;2023-07-31T08:09:13;100250.09;;;15.75;62.62
68822;BME280;55834;50.870;4.606;2023-07-31T08:11:38;100248.44;;;15.89;62.80
68822;BME280;55834;50.870;4.606;2023-07-31T08:14:03;100238.97;;;15.05;64.64
68822;BME280;55834;50.870;4.606;2023-07-31T08:16:29;100242.91;;;15.62;64.76
68822;BME280;55834;50.870;4.606;2023-07-31T08:18:54;100243.00;;;15.44;63.80
68822;BME280;55834;50.870;4.606;2023-07-31T08:21:21;100240.75;;;15.68;63.72
68822;BME280;55834;50.870;4.606;2023-07-31T08:23:46;100242.69;;;16.27;62.24
68822;BME280;55834;50.870;4.606;2023-07-31T08:26:17;100240.16;;;16.54;60.92
68822;BME280;55834;50.870;4.606;2023-07-31T08:28:46;100235.00;;;16.51;61.17
68822;BME280;55834;50.870;4.606;2023-07-31T08:31:12;100235.22;;;16.17;62.03
68822;BME280;55834;50.870;4.606;2023-07-31T08:33:38;100239.94;;;15.82;63.16
68822;BME280;55834;50.870;4.606;2023-07-31T08:36:05;100233.06;;;15.94;62.99
68822;BME280;55834;50.870;4.606;2023-07-31T08:38:30;100247.06;;;16.12;62.37
68822;BME280;55834;50.870;4.606;2023-07-31T08:41:00;100246.47;;;16.22;61.56
68822;BME280;55834;50.870;4.606;2023-07-31T08:43:31;100244.28;;;15.99;62.68
68822;BME280;55834;50.870;4.606;2023-07-31T08:45:59;100238.69;;;16.34;62.72
68822;BME280;55834;50.870;4.606;2023-07-31T08:48:35;100237.56;;;16.81;60.64
68822;BME280;55834;50.870;4.606;2023-07-31T08:51:08;100241.69;;;16.72;61.31
68822;BME280;55834;50.870;4.606;2023-07-31T08:53:37;100240.00;;;17.00;59.63
68822;BME280;55834;50.870;4.606;2023-07-31T08:56:03;100230.59;;;16.21;61.75
68822;BME280;55834;50.870;4.606;2023-07-31T08:58:32;100236.00;;;16.19;62.04
68822;BME280;55834;50.870;4.606;2023-07-31T09:01:04;100230.53;;;16.07;62.01
68822;BME280;55834;50.870;4.606;2023-07-31T09:03:34;100225.00;;;15.95;64.48
68822;BME280;55834;50.870;4.606;2023-07-31T09:06:06;100225.66;;;15.99;64.03
68822;BME280;55834;50.870;4.606;2023-07-31T09:08:37;100240.03;;;16.11;63.16
68822;BME280;55834;50.870;4.606;2023-07-31T09:11:21;100239.09;;;16.12;62.63
68822;BME280;55834;50.870;4.606;2023-07-31T09:13:57;100231.53;;;15.90;63.26
68822;BME280;55834;50.870;4.606;2023-07-31T09:16:29;100221.47;;;15.95;62.31
68822;BME280;55834;50.870;4.606;2023-07-31T09:18:58;100234.38;;;16.61;62.34
68822;BME280;55834;50.870;4.606;2023-07-31T09:21:24;100229.91;;;16.17;63.01
68822;BME280;55834;50.870;4.606;2023-07-31T09:23:54;100236.22;;;16.00;62.68
68822;BME280;55834;50.870;4.606;2023-07-31T09:26:39;100237.19;;;16.14;61.96
68822;BME280;55834;50.870;4.606;2023-07-31T09:29:06;100234.00;;;15.93;64.05
68822;BME280;55834;50.870;4.606;2023-07-31T09:31:42;100217.97;;;16.09;62.68
68822;BME280;55834;50.870;4.606;2023-07-31T09:34:09;100219.88;;;16.07;63.03
68822;BME280;55834;50.870;4.606;2023-07-31T09:36:46;100215.41;;;16.66;61.71
68822;BME280;55834;50.870;4.606;2023-07-31T09:39:14;100213.06;;;16.17;62.58
68822;BME280;55834;50.870;4.606;2023-07-31T09:41:47;100212.69;;;16.23;63.08
68822;BME280;55834;50.870;4.606;2023-07-31T09:44:16;100204.00;;;16.35;64.53
68822;BME280;55834;50.870;4.606;2023-07-31T09:46:42;100206.19;;;15.83;65.33
68822;BME280;55834;50.870;4.606;2023-07-31T09:49:13;100200.56;;;16.33;65.17
68822;BME280;55834;50.870;4.606;2023-07-31T09:51:41;100204.66;;;17.10;63.55
68822;BME280;55834;50.870;4.606;2023-07-31T09:54:13;100203.31;;;16.75;63.08
68822;BME280;55834;50.870;4.606;2023-07-31T09:56:54;100204.09;;;16.62;63.88
68822;BME280;55834;50.870;4.606;2023-07-31T09:59:24;100213.19;;;15.99;65.76
68822;BME280;55834;50.870;4.606;2023-07-31T10:01:55;100220.81;;;16.06;64.69
68822;BME280;55834;50.870;4.606;2023-07-31T10:04:27;100209.41;;;16.48;64.23
68822;BME280;55834;50.870;4.606;2023-07-31T10:06:58;100209.22;;;17.08;62.15
68822;BME280;55834;50.870;4.606;2023-07-31T10:09:32;100202.88;;;17.51;60.94
68822;BME280;55834;50.870;4.606;2023-07-31T10:12:10;100201.69;;;17.01;62.60
68822;BME280;55834;50.870;4.606;2023-07-31T10:14:44;100203.00;;;17.22;63.86
68822;BME280;55834;50.870;4.606;2023-07-31T10:17:10;100188.31;;;17.42;62.43
68822;BME280;55834;50.870;4.606;2023-07-31T10:19:47;100201.22;;;16.94;64.69
68822;BME280;55834;50.870;4.606;2023-07-31T10:22:14;100196.38;;;16.58;65.25
68822;BME280;55834;50.870;4.606;2023-07-31T10:24:42;100188.50;;;17.26;64.02
68822;BME280;55834;50.870;4.606;2023-07-31T10:27:15;100171.63;;;17.53;63.26
68822;BME280;55834;50.870;4.606;2023-07-31T10:29:48;100181.03;;;17.86;62.22
68822;BME280;55834;50.870;4.606;2023-07-31T10:32:16;100171.81;;;17.77;62.40
68822;BME280;55834;50.870;4.606;2023-07-31T10:34:51;100193.63;;;17.29;62.88
68822;BME280;55834;50.870;4.606;2023-07-31T10:37:28;100187.94;;;17.48;63.11
68822;BME280;55834;50.870;4.606;2023-07-31T10:43:26;100190.22;;;17.54;62.56
68822;BME280;55834;50.870;4.606;2023-07-31T10:45:53;100193.44;;;17.32;62.01
68822;BME280;55834;50.870;4.606;2023-07-31T10:48:33;100197.03;;;17.58;61.70
68822;BME280;55834;50.870;4.606;2023-07-31T10:51:10;100203.38;;;17.70;60.58
68822;BME280;55834;50.870;4.606;2023-07-31T10:53:46;100201.88;;;17.39;61.37
68822;BME280;55834;50.870;4.606;2023-07-31T10:56:25;100184.53;;;17.46;61.10
68822;BME280;55834;50.870;4.606;2023-07-31T10:59:13;100178.66;;;16.85;62.45
68822;BME280;55834;50.870;4.606;2023-07-31T11:02:28;100182.19;;;17.00;62.11
68822;BME280;55834;50.870;4.606;2023-07-31T11:05:19;100177.03;;;16.83;63.21
68822;BME280;55834;50.870;4.606;2023-07-31T11:11:17;100162.56;;;16.58;63.07
68822;BME280;55834;50.870;4.606;2023-07-31T11:14:19;100166.34;;;17.11;61.52
68822;BME280;55834;50.870;4.606;2023-07-31T11:24:07;100161.09;;;16.96;61.09
68822;BME280;55834;50.870;4.606;2023-07-31T11:30:19;100132.47;;;17.66;60.85
68822;BME280;55834;50.870;4.606;2023-07-31T11:32:45;100130.31;;;17.98;60.54
68822;BME280;55834;50.870;4.606;2023-07-31T11:35:14;100145.13;;;17.50;60.09
68822;BME280;55834;50.870;4.606;2023-07-31T11:37:41;100135.88;;;17.55;61.47
68822;BME280;55834;50.870;4.606;2023-07-31T11:40:10;100140.03;;;17.20;62.15
68822;BME280;55834;50.870;4.606;2023-07-31T11:42:36;100125.19;;;17.68;59.82
68822;BME280;55834;50.870;4.606;2023-07-31T11:45:05;100117.88;;;17.72;61.56
68822;BME280;55834;50.870;4.606;2023-07-31T11:47:35;100131.34;;;17.43;61.17
68822;BME280;55834;50.870;4.606;2023-07-31T11:50:01;100133.88;;;17.32;61.13
68822;BME280;55834;50.870;4.606;2023-07-31T11:52:28;100128.25;;;17.36;61.22
68822;BME280;55834;50.870;4.606;2023-07-31T11:54:59;100124.34;;;17.68;59.74
68822;BME280;55834;50.870;4.606;2023-07-31T11:57:25;100118.84;;;18.35;58.69
68822;BME280;55834;50.870;4.606;2023-07-31T11:59:54;100116.94;;;18.37;58.25
68822;BME280;55834;50.870;4.606;2023-07-31T12:02:23;100107.09;;;18.37;58.61
68822;BME280;55834;50.870;4.606;2023-07-31T12:04:49;100108.28;;;18.33;57.57
68822;BME280;55834;50.870;4.606;2023-07-31T12:07:15;100105.28;;;18.25;58.67
68822;BME280;55834;50.870;4.606;2023-07-31T12:09:54;100104.47;;;17.46;60.86
68822;BME280;55834;50.870;4.606;2023-07-31T12:12:24;100081.16;;;18.26;58.25
68822;BME280;55834;50.870;4.606;2023-07-31T12:17:51;100072.19;;;18.15;58.70
68822;BME280;55834;50.870;4.606;2023-07-31T12:20:20;100059.19;;;18.60;58.03
68822;BME280;55834;50.870;4.606;2023-07-31T12:22:45;100064.78;;;18.31;57.24
68822;BME280;55834;50.870;4.606;2023-07-31T12:25:16;100066.41;;;18.08;58.50
68822;BME280;55834;50.870;4.606;2023-07-31T12:27:44;100071.56;;;17.86;59.74
68822;BME280;55834;50.870;4.606;2023-07-31T12:30:31;100075.81;;;18.14;58.15
68822;BME280;55834;50.870;4.606;2023-07-31T12:33:06;100086.41;;;17.37;60.06
68822;BME280;55834;50.870;4.606;2023-07-31T12:35:40;100078.28;;;17.78;59.55
68822;BME280;55834;50.870;4.606;2023-07-31T12:38:06;100070.53;;;17.48;59.87
68822;BME280;55834;50.870;4.606;2023-07-31T12:40:32;100064.19;;;17.89;59.38
68822;BME280;55834;50.870;4.606;2023-07-31T12:43:04;100067.66;;;17.11;61.06
68822;BME280;55834;50.870;4.606;2023-07-31T12:45:30;100059.78;;;17.75;59.70
68822;BME280;55834;50.870;4.606;2023-07-31T12:47:57;100053.16;;;18.07;58.86
68822;BME280;55834;50.870;4.606;2023-07-31T12:50:33;100060.00;;;17.85;59.35
68822;BME280;55834;50.870;4.606;2023-07-31T12:53:02;100050.06;;;17.87;59.63
68822;BME280;55834;50.870;4.606;2023-07-31T12:55:32;100050.84;;;17.89;58.93
68822;BME280;55834;50.870;4.606;2023-07-31T12:58:02;100051.56;;;17.66;60.35
68822;BME280;55834;50.870;4.606;2023-07-31T13:00:28;100052.59;;;17.63;60.94
68822;BME280;55834;50.870;4.606;2023-07-31T13:03:03;100064.88;;;17.13;61.30
68822;BME280;55834;50.870;4.606;2023-07-31T13:05:28;100066.84;;;16.55;63.34
68822;BME280;55834;50.870;4.606;2023-07-31T13:07:54;100050.34;;;17.44;61.67
68822;BME280;55834;50.870;4.606;2023-07-31T13:10:20;100047.78;;;17.68;60.73
68822;BME280;55834;50.870;4.606;2023-07-31T13:12:45;100053.16;;;18.07;59.89
68822;BME280;55834;50.870;4.606;2023-07-31T13:15:15;100046.84;;;18.08;60.05
68822;BME280;55834;50.870;4.606;2023-07-31T13:17:40;100063.28;;;17.10;62.38
68822;BME280;55834;50.870;4.606;2023-07-31T13:20:07;100060.63;;;17.10;62.60